Portada
METAR-TAF:

METAR-TAF

Aeropuertos :

Asaluyeh, Irán

latitud: 27-22-46N, longitud: 52-44-15E, altitud: 8 m

Observación

El informe se hizo hace 9 minutos, a las 16:00 UTC
Viento 4 kt del este-noreste
Temperatura 19°C
Humedad 83%
Presión 1016 hPa
Visibilidad: 8000 m
Escasas nubes a una altura de 3000 ft, Cumulonimbus.
Nubes dispersas a una altura de 4000 ft
Cielo nuboso a una altura de 8000 ft
tormenta

METAR: OIBP 171600Z 07004KT 8000 TS FEW030CB SCT040 BKN080 19/16 Q1015 A3000

Hora: 19:39 (16:09 UTC)


TAF: falta

Observaciones y pronósticos meteorológicos de más de 4000 aeropuertos (mensajes METAR y TAF).

Los puntos amarillos y rojos representan las estaciones disponibles.

Ponga el ratón en el punto deseado para ver el nombre de la estación.

Haga clic para ver las observaciones y los pronósticos meteorológicos.

Para cambiar el mapa : haga clic en los botones verdes con una cruz de color negro para hacer un zoom, en el botón verde con un guión para alejar o en las flechas verdes para mapas adyacentes.


METAR-TAF: